Time;durP1;ratioP1;P1;durP2;ratioP2;P2;SDS_P1;SDS_P2;PMS_P1;PMS_P2;Temp;Humidity;BMP_temperature;BMP_pressure;BME280_temperature;BME280_humidity;BME280_pressure;Samples;Min_cycle;Max_cycle;Signal;HPM_P1;HPM_P2
2021/10/11 00:01:38;;;;;;;7.97;4.78;;;20.30;56.10;;;;;;20531358;28;20067;-51
2021/10/11 00:11:38;;;;;;;6.15;3.95;;;20.20;56.50;;;;;;20563084;28;20109;-53
2021/10/11 00:21:39;;;;;;;6.30;4.30;;;20.10;56.70;;;;;;20513183;28;20125;-51
2021/10/11 00:31:39;;;;;;;6.00;3.78;;;20.00;56.30;;;;;;20517977;28;20139;-51
2021/10/11 00:41:40;;;;;;;8.32;4.38;;;20.00;56.80;;;;;;20501889;28;20047;-52
2021/10/11 00:51:42;;;;;;;9.10;4.53;;;20.00;56.70;;;;;;20530707;28;20030;-51
2021/10/11 01:01:42;;;;;;;8.80;4.28;;;19.90;56.00;;;;;;20525899;28;20058;-51
2021/10/11 01:11:47;;;;;;;9.80;4.10;;;19.90;56.20;;;;;;20528613;28;20039;-56
2021/10/11 01:21:48;;;;;;;8.63;4.20;;;19.80;56.30;;;;;;20529988;28;20065;-47
2021/10/11 01:31:49;;;;;;;9.35;4.45;;;19.80;56.40;;;;;;20535010;28;20043;-50
2021/10/11 01:41:50;;;;;;;6.35;3.58;;;19.70;56.60;;;;;;20530061;28;20046;-57
2021/10/11 01:51:50;;;;;;;6.68;4.30;;;19.70;56.70;;;;;;20526339;28;20039;-58
2021/10/11 02:01:51;;;;;;;4.57;3.15;;;19.60;56.70;;;;;;20525431;28;20046;-58
2021/10/11 02:11:51;;;;;;;5.15;3.40;;;19.60;56.60;;;;;;20547093;28;20037;-56
2021/10/11 02:21:52;;;;;;;6.47;4.20;;;19.60;56.70;;;;;;20532387;28;20498;-57
2021/10/11 02:31:52;;;;;;;5.15;3.70;;;19.50;56.70;;;;;;20581726;28;20026;-58
2021/10/11 02:41:53;;;;;;;6.45;4.25;;;19.50;56.70;;;;;;20554801;28;20429;-53
2021/10/11 02:51:53;;;;;;;5.93;3.47;;;19.50;56.60;;;;;;20558764;28;20040;-55
2021/10/11 03:01:54;;;;;;;4.53;2.92;;;19.50;56.70;;;;;;20577197;28;20038;-56
2021/10/11 03:11:54;;;;;;;7.25;3.33;;;19.40;56.60;;;;;;20579889;28;20031;-58
2021/10/11 03:21:55;;;;;;;6.13;4.05;;;19.40;56.50;;;;;;20578816;28;20038;-57
2021/10/11 03:31:56;;;;;;;5.03;3.80;;;19.40;56.60;;;;;;20573027;28;20038;-58
2021/10/11 03:41:56;;;;;;;5.60;4.07;;;19.40;56.50;;;;;;20577853;28;20031;-58
2021/10/11 03:51:57;;;;;;;4.90;3.53;;;19.40;56.50;;;;;;20577100;28;20466;-58
2021/10/11 04:01:57;;;;;;;5.70;4.30;;;19.40;56.50;;;;;;20576951;28;20084;-58
2021/10/11 04:12:06;;;;;;;5.20;4.13;;;19.40;56.60;;;;;;20576334;28;20035;-56
2021/10/11 04:22:07;;;;;;;5.27;4.13;;;19.30;56.60;;;;;;20576032;28;20078;-52
2021/10/11 04:32:08;;;;;;;6.47;5.00;;;19.30;56.60;;;;;;20575309;28;20019;-57
2021/10/11 04:42:09;;;;;;;4.75;4.15;;;19.30;56.70;;;;;;20594123;28;20090;-57
2021/10/11 04:52:09;;;;;;;7.07;4.32;;;19.30;56.80;;;;;;20590403;28;20039;-51
2021/10/11 05:02:10;;;;;;;9.27;4.25;;;19.30;56.80;;;;;;20590873;28;20034;-53
2021/10/11 05:12:10;;;;;;;5.68;4.63;;;19.20;56.80;;;;;;20552435;28;20042;-49
2021/10/11 05:22:11;;;;;;;7.35;5.13;;;19.20;56.80;;;;;;20516672;28;20033;-53
2021/10/11 05:32:11;;;;;;;7.13;4.05;;;19.20;56.90;;;;;;20523246;28;20449;-52
2021/10/11 05:42:12;;;;;;;5.80;4.45;;;19.20;56.90;;;;;;20545827;28;20039;-55
2021/10/11 05:52:13;;;;;;;7.90;4.45;;;19.20;57.00;;;;;;20543305;28;20038;-58
2021/10/11 06:02:13;;;;;;;15.20;4.55;;;19.30;57.00;;;;;;20532034;28;20488;-57
2021/10/11 06:12:14;;;;;;;16.37;5.33;;;19.50;57.10;;;;;;20512094;28;20019;-56
2021/10/11 06:22:14;;;;;;;20.02;4.93;;;19.60;57.00;;;;;;20526168;28;20516;-56
2021/10/11 06:32:15;;;;;;;17.25;6.50;;;19.80;57.00;;;;;;20541332;28;20026;-56
2021/10/11 06:42:15;;;;;;;15.55;6.32;;;20.00;56.90;;;;;;20550102;28;20122;-55
2021/10/11 06:52:16;;;;;;;17.98;5.97;;;20.20;56.60;;;;;;20532125;28;20114;-53
2021/10/11 07:02:19;;;;;;;18.90;5.68;;;20.20;56.80;;;;;;20531873;28;20099;-55
2021/10/11 07:12:20;;;;;;;12.95;6.60;;;20.10;56.80;;;;;;20530488;28;20041;-55
2021/10/11 07:22:21;;;;;;;12.15;5.97;;;20.10;56.90;;;;;;20521089;28;20027;-54
2021/10/11 07:32:21;;;;;;;15.15;5.45;;;20.10;56.90;;;;;;20564872;28;20022;-57
2021/10/11 07:42:22;;;;;;;11.88;4.88;;;20.10;56.90;;;;;;20545023;28;20031;-53
2021/10/11 07:52:23;;;;;;;11.68;5.50;;;20.10;57.00;;;;;;20560185;28;20077;-53
2021/10/11 08:02:23;;;;;;;15.75;5.22;;;20.10;56.90;;;;;;20559873;28;20034;-56
2021/10/11 08:12:24;;;;;;;11.90;4.95;;;20.20;57.00;;;;;;20568501;28;20531;-53
2021/10/11 08:22:25;;;;;;;14.55;5.45;;;20.20;57.10;;;;;;20566936;28;20117;-58
2021/10/11 08:32:27;;;;;;;16.13;5.23;;;20.20;57.90;;;;;;20569973;28;20034;-54
2021/10/11 08:42:27;;;;;;;12.15;4.88;;;20.20;58.20;;;;;;20555292;28;20114;-58
2021/10/11 08:52:28;;;;;;;9.05;4.00;;;20.20;58.00;;;;;;20559777;28;20039;-57
2021/10/11 09:02:28;;;;;;;14.25;6.20;;;20.20;59.30;;;;;;20573674;28;20026;-57
2021/10/11 09:12:30;;;;;;;11.93;5.43;;;20.20;59.40;;;;;;20565301;28;20031;-56
2021/10/11 09:22:37;;;;;;;7.28;4.40;;;20.30;59.10;;;;;;20571554;28;20026;-57
2021/10/11 09:32:38;;;;;;;8.55;3.90;;;20.30;58.90;;;;;;20586918;28;20081;-56
2021/10/11 09:42:39;;;;;;;5.93;3.38;;;20.30;58.90;;;;;;20571754;28;20039;-56
2021/10/11 09:52:41;;;;;;;6.03;3.60;;;20.30;59.20;;;;;;20585815;28;20038;-55
2021/10/11 10:02:43;;;;;;;6.50;3.30;;;20.30;59.00;;;;;;20537899;28;20473;-57
2021/10/11 10:12:49;;;;;;;8.10;4.05;;;20.30;59.10;;;;;;20547448;28;20053;-53
2021/10/11 10:22:51;;;;;;;8.02;3.40;;;20.30;59.30;;;;;;20524939;28;20034;-57
2021/10/11 10:32:55;;;;;;;8.13;4.35;;;20.30;60.20;;;;;;20520682;28;20133;-60
2021/10/11 10:43:12;;;;;;;6.85;3.72;;;20.30;60.70;;;;;;20510637;28;20045;-52
2021/10/11 10:53:13;;;;;;;5.30;2.85;;;20.40;60.90;;;;;;20538903;28;20027;-54
2021/10/11 11:03:17;;;;;;;4.85;3.00;;;20.30;61.00;;;;;;20519201;28;20034;-52
2021/10/11 11:13:18;;;;;;;4.07;2.67;;;20.30;60.30;;;;;;20520701;28;20110;-54
2021/10/11 11:23:23;;;;;;;4.65;2.38;;;20.30;60.10;;;;;;20540762;28;20054;-47
2021/10/11 11:33:25;;;;;;;4.38;2.40;;;20.30;60.20;;;;;;20520172;28;20037;-53
2021/10/11 11:43:30;;;;;;;4.40;2.50;;;20.30;60.40;;;;;;20528418;28;20042;-61
2021/10/11 11:53:32;;;;;;;6.32;3.00;;;20.30;60.20;;;;;;20530585;28;20062;-53
2021/10/11 12:03:37;;;;;;;5.32;3.00;;;20.40;60.00;;;;;;20507885;28;20093;-53
2021/10/11 12:13:41;;;;;;;3.53;2.30;;;20.30;60.10;;;;;;20521504;28;20027;-52
2021/10/11 12:23:41;;;;;;;3.05;2.03;;;20.30;60.00;;;;;;20515536;28;20097;-57
2021/10/11 12:33:43;;;;;;;3.83;2.03;;;20.30;59.90;;;;;;20514557;28;20035;-56
2021/10/11 12:43:55;;;;;;;2.63;1.83;;;20.30;60.10;;;;;;20515916;28;20042;-58
2021/10/11 12:54:08;;;;;;;3.80;1.98;;;20.30;60.00;;;;;;20516733;28;20037;-57
2021/10/11 13:04:08;;;;;;;5.95;2.03;;;20.20;59.80;;;;;;20582176;28;20413;-56
2021/10/11 13:14:09;;;;;;;2.85;1.92;;;20.20;60.00;;;;;;20591282;28;20034;-56
2021/10/11 13:24:10;;;;;;;4.63;2.38;;;20.20;60.10;;;;;;20584669;28;20405;-57
2021/10/11 16:08:49;;;;;;;12.52;2.38;;;20.10;64.30;;;;;;20548324;28;19933;-55
2021/10/11 16:18:50;;;;;;;10.50;1.92;;;20.10;63.60;;;;;;20537451;28;20063;-58
2021/10/11 16:28:50;;;;;;;21.42;3.38;;;20.10;63.50;;;;;;20535316;28;20500;-51
2021/10/11 16:38:51;;;;;;;34.15;4.78;;;20.20;63.10;;;;;;20569513;28;20042;-49
2021/10/11 16:48:52;;;;;;;39.85;4.82;;;20.20;63.60;;;;;;20550532;28;20085;-56
2021/10/11 16:58:53;;;;;;;30.60;5.93;;;20.30;63.40;;;;;;20557129;28;20050;-54
2021/10/11 17:08:54;;;;;;;32.20;5.27;;;20.30;64.80;;;;;;20548319;28;20031;-56
2021/10/11 17:18:58;;;;;;;32.67;4.78;;;20.30;64.90;;;;;;20534888;28;20508;-58
2021/10/11 17:28:58;;;;;;;31.55;4.28;;;20.30;63.80;;;;;;20549286;28;20039;-54
2021/10/11 17:38:59;;;;;;;20.70;4.63;;;20.20;64.00;;;;;;20547486;28;20069;-57
2021/10/11 17:49:00;;;;;;;21.27;2.92;;;20.20;64.60;;;;;;20536758;28;20042;-58
2021/10/11 17:59:06;;;;;;;18.45;2.50;;;20.20;64.30;;;;;;20536929;28;20039;-58
2021/10/11 18:09:06;;;;;;;20.20;3.70;;;20.20;64.50;;;;;;20526377;28;20119;-58
2021/10/11 18:19:07;;;;;;;12.43;3.67;;;20.10;64.60;;;;;;20532417;28;20051;-55
2021/10/11 18:29:09;;;;;;;20.63;2.38;;;20.20;63.60;;;;;;20502560;28;20110;-56
2021/10/11 18:39:10;;;;;;;15.18;3.35;;;20.30;64.30;;;;;;20495093;28;20103;-55
2021/10/11 18:49:10;;;;;;;10.63;2.03;;;20.40;64.50;;;;;;20499498;28;20189;-55
2021/10/11 18:59:12;;;;;;;12.65;2.10;;;20.60;64.30;;;;;;20499507;28;20069;-55
2021/10/11 19:09:13;;;;;;;11.07;1.92;;;20.70;64.10;;;;;;20499184;28;20023;-57
2021/10/11 19:19:16;;;;;;;5.72;1.70;;;20.60;63.80;;;;;;20496862;29;20023;-52
2021/10/11 19:29:17;;;;;;;6.75;1.20;;;20.60;63.70;;;;;;20495227;29;20050;-58
2021/10/11 19:39:19;;;;;;;7.53;1.30;;;20.60;63.50;;;;;;20497131;28;20702;-58
2021/10/11 19:49:19;;;;;;;6.55;1.42;;;20.50;63.50;;;;;;20493941;28;20035;-56
2021/10/11 19:59:20;;;;;;;6.35;1.00;;;20.50;63.40;;;;;;20494501;28;20035;-57
2021/10/11 20:09:21;;;;;;;10.00;1.40;;;20.50;63.40;;;;;;20502926;28;20033;-57
2021/10/11 20:19:22;;;;;;;6.10;1.17;;;20.50;63.40;;;;;;20569937;28;20074;-57
2021/10/11 20:29:23;;;;;;;3.38;1.10;;;20.50;64.10;;;;;;20567888;28;20031;-57
2021/10/11 20:39:23;;;;;;;5.45;0.85;;;20.40;64.60;;;;;;20588072;28;20050;-57
2021/10/11 20:49:25;;;;;;;6.75;1.67;;;20.40;65.00;;;;;;20566454;28;20034;-58
2021/10/11 20:59:26;;;;;;;3.40;0.95;;;20.30;64.70;;;;;;20555370;28;20498;-58
2021/10/11 21:09:26;;;;;;;3.42;1.08;;;20.20;65.20;;;;;;20574552;28;20023;-57
2021/10/11 21:19:27;;;;;;;3.50;0.95;;;20.10;65.50;;;;;;20579328;28;20490;-57
2021/10/11 21:29:27;;;;;;;4.13;0.95;;;20.10;65.20;;;;;;20548284;28;20407;-58
2021/10/11 21:39:28;;;;;;;3.65;0.82;;;20.00;64.80;;;;;;20523852;28;20043;-56
2021/10/11 21:49:28;;;;;;;2.00;0.65;;;19.90;64.40;;;;;;20526865;28;20035;-50
2021/10/11 21:59:30;;;;;;;3.58;0.88;;;19.80;64.40;;;;;;20522212;28;20042;-53
2021/10/11 22:09:30;;;;;;;4.28;0.80;;;19.80;64.50;;;;;;20517826;28;20102;-53
2021/10/11 22:19:31;;;;;;;7.55;0.73;;;19.70;64.30;;;;;;20535213;28;20119;-55
2021/10/11 22:29:31;;;;;;;5.18;0.90;;;19.80;64.40;;;;;;20533660;28;20032;-53
2021/10/11 22:39:32;;;;;;;3.10;0.60;;;19.70;64.00;;;;;;20522434;28;20493;-55
2021/10/11 22:49:33;;;;;;;3.05;0.80;;;19.70;64.10;;;;;;20512083;28;20034;-56
2021/10/11 22:59:37;;;;;;;3.35;0.65;;;19.70;63.60;;;;;;20553080;28;20058;-56
2021/10/11 23:09:38;;;;;;;2.88;0.63;;;19.70;63.30;;;;;;20576843;28;20035;-51
2021/10/11 23:19:38;;;;;;;3.47;0.93;;;19.70;63.10;;;;;;20580968;28;20359;-54
2021/10/11 23:29:39;;;;;;;3.17;0.65;;;19.60;63.30;;;;;;20577312;28;20039;-54
2021/10/11 23:39:39;;;;;;;1.48;0.50;;;19.60;63.00;;;;;;20578728;28;20043;-56
2021/10/11 23:49:41;;;;;;;4.37;1.07;;;19.60;63.10;;;;;;20578334;28;20035;-56
2021/10/11 23:59:41;;;;;;;2.90;0.40;;;19.40;63.00;;;;;;20524940;28;20494;-55
